首页
METAR-TAF:

METAR-TAF

机场 :

聖保羅, 圣保罗州, 巴西

孔戈尼亚斯/圣保罗机场

纬度: 23-37S, 经度: 046-39W, 海拔: 803米

当前天气观测

该预报发布于43分钟前的14:00 UTC
风速5节,风向东转东北,在东转东南之间变化
温度 23°C
湿度 65%
气压 1025 hPa
能見度: 9000

METAR: SBSP 251400Z 07005KT 360V120 9000 NSC 23/16 Q1025

时间: 11:43 (14:43 UTC)

预报

该预报发布于6小时和13分钟前的08:30 UTC
预报有效从25日的 12点(UTC)到 26日的 12点(UTC)
风速5节,风向东转东南
能见度10公里或以上
散云层高于3000英尺
成为
从 25日的 12点(UTC)到 25日的 14点(UTC)
风速5节,风向东转东北
散云层高于3500英尺
成为
从 25日的 15点(UTC)到 25日的 17点(UTC)
风速5节,风向南转南东
少量云层高于4000英尺
成为
从 25日的 20点(UTC)到 25日的 22点(UTC)
少量云层高于1100英尺
成为
从 26日的 06点(UTC)到 26日的 08点(UTC)
能見度: 6000
散云层高于400英尺
多云层高于700英尺
成为
从 26日的 09点(UTC)到 26日的 11点(UTC)
散云层高于700英尺
多云层高于2000英尺

TAF: SBSP 250830Z 2512/2612 12005KT 9999 SCT030 TX26/2518Z TN16/2608Z BECMG 2512/2514 06005KT SCT035 BECMG 2515/2517 16005KT FEW040 BECMG 2520/2522 FEW011 BECMG 2606/2608 6000 SCT004 BKN007 BECMG 2609/2611 SCT007 BKN020 RMK PHG

超过4000个机场的气象观测和天气预报(METAR&TAF报告)。

可查询的气象台以黄色和红色小点在地图上表示。

将鼠标移到小点上方,可查看气象台名称。

然后点击查看天气观测和预报。

如需切换地图:点击带黑十字的绿色按钮放大地图;点击带横线的绿色按钮缩小地图;或者点击绿色箭头查看邻近地区的地图。


METAR-TAF: